UAE9911 SBGR-SEQM
Flight info
| Callsign | UAE9911 |
|---|---|
| Flight time | N/A |
| Altitude | 38000 |
| Route | GERTU DCT MORDA DCT DIKAX DCT NIBMI/N0480F400 DCT UGAXO UM775 RCO UN420 LOBAL DCT RONSO DCT KETOM |
| Aircraft | B77L/H-SDE1E2E3FGHIJ2J3J4J5M1RWXY/LB1D1 |
Departure
| Time | N/A |
|---|---|
| Airport | São Paulo/Guarulhos–Governor André Franco Montoro International Airport (SBGR) |
Arrival
| Time | 2026-04-29 18:15 |
|---|---|
| Airport | Mariscal Sucre International Airport (SEQM) |
| Time | Latitude | Longitude | Altitude | Speed | Heading |
|---|---|---|---|---|---|
| 2026-04-29 17:17 | -4.39342 | -73.87540 | 39928 ft | 468 kts | 299° |
| 2026-04-29 17:17 | -4.36180 | -73.93238 | 39946 ft | 467 kts | 304° |
| 2026-04-29 17:18 | -4.32446 | -73.98554 | 39933 ft | 467 kts | 307° |
| 2026-04-29 17:18 | -4.28641 | -74.03830 | 39939 ft | 467 kts | 307° |
| 2026-04-29 17:19 | -4.24849 | -74.09122 | 39933 ft | 468 kts | 306° |
| 2026-04-29 17:19 | -4.21066 | -74.14433 | 39932 ft | 468 kts | 306° |
| 2026-04-29 17:20 | -4.17312 | -74.19717 | 39937 ft | 469 kts | 306° |
| 2026-04-29 17:20 | -4.13531 | -74.25039 | 39929 ft | 469 kts | 306° |
| 2026-04-29 17:21 | -4.09750 | -74.30359 | 39937 ft | 469 kts | 306° |
| 2026-04-29 17:21 | -4.05966 | -74.35679 | 39918 ft | 469 kts | 306° |
| 2026-04-29 17:22 | -4.02187 | -74.40992 | 39933 ft | 468 kts | 306° |
| 2026-04-29 17:22 | -3.98409 | -74.46303 | 39926 ft | 468 kts | 306° |
| 2026-04-29 17:23 | -3.94638 | -74.51603 | 39922 ft | 467 kts | 306° |
| 2026-04-29 17:23 | -3.90866 | -74.56903 | 39926 ft | 467 kts | 306° |
| 2026-04-29 17:24 | -3.87100 | -74.62194 | 39927 ft | 466 kts | 306° |
| 2026-04-29 17:24 | -3.83335 | -74.67483 | 39930 ft | 466 kts | 306° |
| 2026-04-29 17:25 | -3.79571 | -74.72770 | 39925 ft | 466 kts | 306° |
| 2026-04-29 17:25 | -3.75806 | -74.78055 | 39927 ft | 466 kts | 306° |
| 2026-04-29 17:26 | -3.72040 | -74.83343 | 39922 ft | 466 kts | 306° |
| 2026-04-29 17:26 | -3.68273 | -74.88630 | 39928 ft | 467 kts | 306° |
| 2026-04-29 17:27 | -3.64505 | -74.93919 | 39919 ft | 467 kts | 306° |
| 2026-04-29 17:27 | -3.60731 | -74.99215 | 39922 ft | 467 kts | 306° |
| 2026-04-29 17:28 | -3.56957 | -75.04510 | 39921 ft | 468 kts | 306° |
| 2026-04-29 17:28 | -3.53179 | -75.09810 | 39922 ft | 467 kts | 306° |
| 2026-04-29 17:29 | -3.49405 | -75.15103 | 39916 ft | 467 kts | 306° |
| 2026-04-29 17:29 | -3.46268 | -75.19502 | 39919 ft | 467 kts | 306° |
| 2026-04-29 17:30 | -3.41863 | -75.25679 | 39918 ft | 466 kts | 306° |
| 2026-04-29 17:30 | -3.38095 | -75.30961 | 39918 ft | 466 kts | 306° |
| 2026-04-29 17:31 | -3.34334 | -75.36232 | 39921 ft | 466 kts | 306° |
| 2026-04-29 17:31 | -3.30571 | -75.41506 | 39919 ft | 465 kts | 306° |
| 2026-04-29 17:32 | -3.26832 | -75.46745 | 39913 ft | 465 kts | 305° |
| 2026-04-29 17:32 | -3.23071 | -75.52014 | 39915 ft | 465 kts | 305° |
| 2026-04-29 17:33 | -3.19309 | -75.57284 | 39913 ft | 465 kts | 305° |
| 2026-04-29 17:33 | -3.15548 | -75.62552 | 39914 ft | 465 kts | 305° |
| 2026-04-29 17:34 | -3.11787 | -75.67820 | 39911 ft | 466 kts | 305° |
| 2026-04-29 17:34 | -3.08022 | -75.73092 | 39909 ft | 466 kts | 305° |
| 2026-04-29 17:35 | -3.02372 | -75.81002 | 39915 ft | 466 kts | 305° |
| 2026-04-29 17:36 | -2.98603 | -75.86277 | 39912 ft | 466 kts | 305° |
| 2026-04-29 17:36 | -2.94837 | -75.91548 | 39909 ft | 465 kts | 305° |
| 2026-04-29 17:37 | -2.91077 | -75.96809 | 39913 ft | 465 kts | 305° |
| 2026-04-29 17:37 | -2.87320 | -76.02067 | 39915 ft | 464 kts | 305° |
| 2026-04-29 17:38 | -2.83569 | -76.07313 | 39915 ft | 463 kts | 305° |
| 2026-04-29 17:38 | -2.79820 | -76.12558 | 39916 ft | 463 kts | 305° |
| 2026-04-29 17:39 | -2.76078 | -76.17791 | 39926 ft | 462 kts | 304° |
| 2026-04-29 17:39 | -2.72344 | -76.23014 | 39924 ft | 461 kts | 304° |
| 2026-04-29 17:40 | -2.68620 | -76.28221 | 39921 ft | 460 kts | 304° |
| 2026-04-29 17:40 | -2.64902 | -76.33419 | 39927 ft | 459 kts | 304° |
| 2026-04-29 17:41 | -2.61191 | -76.38608 | 39928 ft | 458 kts | 305° |
| 2026-04-29 17:41 | -2.57504 | -76.43762 | 39924 ft | 459 kts | 305° |
| 2026-04-29 17:42 | -2.53785 | -76.48959 | 39935 ft | 460 kts | 305° |
| 2026-04-29 17:42 | -2.50060 | -76.54165 | 39944 ft | 461 kts | 305° |
| 2026-04-29 17:43 | -2.46324 | -76.59385 | 39944 ft | 462 kts | 305° |
| 2026-04-29 17:43 | -2.42583 | -76.64613 | 39937 ft | 462 kts | 305° |
| 2026-04-29 17:44 | -2.38838 | -76.69844 | 39948 ft | 463 kts | 305° |
| 2026-04-29 17:44 | -2.35094 | -76.75074 | 39952 ft | 463 kts | 305° |
| 2026-04-29 17:45 | -2.31346 | -76.80308 | 39956 ft | 463 kts | 305° |
| 2026-04-29 17:45 | -2.27603 | -76.85537 | 39954 ft | 462 kts | 305° |
| 2026-04-29 17:46 | -2.23864 | -76.90758 | 39951 ft | 462 kts | 305° |
| 2026-04-29 17:46 | -2.20124 | -76.95981 | 39959 ft | 462 kts | 305° |
| 2026-04-29 17:47 | -2.16380 | -77.01208 | 39964 ft | 463 kts | 305° |
| 2026-04-29 17:47 | -2.12629 | -77.06444 | 39959 ft | 464 kts | 305° |
| 2026-04-29 17:48 | -2.08875 | -77.11684 | 39957 ft | 463 kts | 305° |
| 2026-04-29 17:48 | -2.05126 | -77.16917 | 39968 ft | 462 kts | 305° |
| 2026-04-29 17:49 | -2.01385 | -77.22138 | 39968 ft | 462 kts | 305° |
| 2026-04-29 17:49 | -1.97642 | -77.27361 | 39967 ft | 462 kts | 304° |
| 2026-04-29 17:50 | -1.93902 | -77.32580 | 39975 ft | 462 kts | 304° |
| 2026-04-29 17:50 | -1.90160 | -77.37801 | 39980 ft | 462 kts | 304° |
| 2026-04-29 17:51 | -1.86415 | -77.43026 | 39982 ft | 462 kts | 304° |
| 2026-04-29 17:51 | -1.82691 | -77.48222 | 39974 ft | 463 kts | 304° |
| 2026-04-29 17:52 | -1.78941 | -77.53452 | 39992 ft | 463 kts | 304° |
| 2026-04-29 17:52 | -1.75184 | -77.58692 | 39991 ft | 464 kts | 304° |
| 2026-04-29 17:53 | -1.71422 | -77.63939 | 39989 ft | 465 kts | 303° |
| 2026-04-29 17:53 | -1.68289 | -77.68308 | 39998 ft | 466 kts | 303° |
| 2026-04-29 17:54 | -1.64515 | -77.73572 | 39997 ft | 466 kts | 303° |
| 2026-04-29 17:54 | -1.60737 | -77.78840 | 39997 ft | 467 kts | 303° |
| 2026-04-29 17:55 | -1.56949 | -77.84122 | 40072 ft | 467 kts | 303° |
| 2026-04-29 17:55 | -1.53158 | -77.89407 | 40085 ft | 468 kts | 303° |
| 2026-04-29 17:56 | -1.49363 | -77.94698 | 40084 ft | 468 kts | 303° |
| 2026-04-29 17:56 | -1.45577 | -77.99976 | 40087 ft | 466 kts | 303° |
| 2026-04-29 17:57 | -1.41801 | -78.05240 | 40091 ft | 465 kts | 303° |
| 2026-04-29 17:57 | -1.38047 | -78.10471 | 39889 ft | 462 kts | 303° |
| 2026-04-29 17:57 | -1.36167 | -78.13093 | 39216 ft | 464 kts | 304° |
| 2026-04-29 17:58 | -1.34289 | -78.15710 | 38527 ft | 464 kts | 304° |
| 2026-04-29 17:58 | -1.32406 | -78.18335 | 37709 ft | 465 kts | 304° |
| 2026-04-29 17:58 | -1.30523 | -78.20960 | 36926 ft | 465 kts | 305° |
| 2026-04-29 17:58 | -1.28638 | -78.23587 | 36146 ft | 465 kts | 306° |
| 2026-04-29 17:59 | -1.26750 | -78.26220 | 35331 ft | 468 kts | 306° |
| 2026-04-29 17:59 | -1.24845 | -78.28875 | 34407 ft | 473 kts | 307° |
| 2026-04-29 17:59 | -1.22912 | -78.31567 | 33333 ft | 479 kts | 307° |
| 2026-04-29 17:59 | -1.20988 | -78.34247 | 32283 ft | 483 kts | 307° |
| 2026-04-29 18:00 | -1.19023 | -78.36985 | 31195 ft | 488 kts | 307° |
| 2026-04-29 18:00 | -1.17043 | -78.39744 | 30384 ft | 487 kts | 307° |
| 2026-04-29 18:00 | -1.15076 | -78.42486 | 29511 ft | 484 kts | 307° |
| 2026-04-29 18:00 | -1.12970 | -78.45043 | 28717 ft | 473 kts | 318° |
| 2026-04-29 18:01 | -1.10311 | -78.46927 | 27995 ft | 469 kts | 334° |
| 2026-04-29 18:01 | -1.07300 | -78.48152 | 27278 ft | 468 kts | 340° |
| 2026-04-29 18:01 | -1.04249 | -78.49324 | 26593 ft | 472 kts | 339° |
| 2026-04-29 18:01 | -1.01197 | -78.50535 | 25863 ft | 471 kts | 339° |
| 2026-04-29 18:02 | -0.98171 | -78.51764 | 25149 ft | 469 kts | 339° |
| 2026-04-29 18:02 | -0.95163 | -78.52999 | 24396 ft | 466 kts | 338° |
| 2026-04-29 18:02 | -0.92177 | -78.54231 | 23630 ft | 463 kts | 338° |
| 2026-04-29 18:02 | -0.89207 | -78.55457 | 22837 ft | 459 kts | 338° |
| 2026-04-29 18:03 | -0.86272 | -78.56666 | 22128 ft | 454 kts | 339° |
| 2026-04-29 18:03 | -0.83373 | -78.57858 | 21442 ft | 449 kts | 339° |
| 2026-04-29 18:03 | -0.80494 | -78.59042 | 20768 ft | 445 kts | 339° |
| 2026-04-29 18:03 | -0.77647 | -78.60213 | 20092 ft | 441 kts | 339° |
| 2026-04-29 18:04 | -0.74802 | -78.61113 | 19397 ft | 414 kts | 353° |
| 2026-04-29 18:04 | -0.72074 | -78.61119 | 19002 ft | 374 kts | 11° |
| 2026-04-29 18:04 | -0.69605 | -78.60719 | 18414 ft | 351 kts | 11° |
| 2026-04-29 18:04 | -0.67210 | -78.60340 | 18035 ft | 347 kts | 11° |
| 2026-04-29 18:05 | -0.64840 | -78.59978 | 17687 ft | 342 kts | 11° |
| 2026-04-29 18:05 | -0.62513 | -78.59627 | 17151 ft | 344 kts | 10° |
| 2026-04-29 18:05 | -0.60156 | -78.59278 | 16735 ft | 340 kts | 10° |
| 2026-04-29 18:05 | -0.57832 | -78.58938 | 16361 ft | 336 kts | 10° |
| 2026-04-29 18:06 | -0.55534 | -78.58602 | 16033 ft | 331 kts | 10° |
| 2026-04-29 18:06 | -0.53269 | -78.58273 | 15699 ft | 327 kts | 10° |
| 2026-04-29 18:06 | -0.51039 | -78.57921 | 15377 ft | 322 kts | 13° |
| 2026-04-29 18:06 | -0.48882 | -78.57410 | 15066 ft | 316 kts | 18° |
| 2026-04-29 18:07 | -0.46821 | -78.56708 | 14745 ft | 310 kts | 25° |
| 2026-04-29 18:07 | -0.44877 | -78.55827 | 14433 ft | 305 kts | 30° |
| 2026-04-29 18:07 | -0.43044 | -78.54802 | 14137 ft | 300 kts | 33° |
| 2026-04-29 18:07 | -0.41278 | -78.53707 | 13864 ft | 294 kts | 34° |
| 2026-04-29 18:08 | -0.39572 | -78.52677 | 13526 ft | 278 kts | 34° |
| 2026-04-29 18:08 | -0.37966 | -78.51711 | 13290 ft | 261 kts | 34° |
| 2026-04-29 18:08 | -0.36442 | -78.50792 | 13134 ft | 252 kts | 33° |
| 2026-04-29 18:08 | -0.34953 | -78.49893 | 12960 ft | 248 kts | 31° |
| 2026-04-29 18:09 | -0.33490 | -78.48988 | 12712 ft | 246 kts | 34° |
| 2026-04-29 18:09 | -0.32201 | -78.47899 | 12416 ft | 239 kts | 49° |
| 2026-04-29 18:09 | -0.31295 | -78.46558 | 12129 ft | 229 kts | 64° |
| 2026-04-29 18:09 | -0.30758 | -78.45105 | 11894 ft | 217 kts | 76° |
| 2026-04-29 18:10 | -0.30494 | -78.43665 | 11659 ft | 205 kts | 86° |
| 2026-04-29 18:10 | -0.30464 | -78.42282 | 11494 ft | 196 kts | 94° |
| 2026-04-29 18:10 | -0.30504 | -78.40914 | 11330 ft | 200 kts | 92° |
| 2026-04-29 18:10 | -0.30500 | -78.39529 | 11164 ft | 200 kts | 84° |
| 2026-04-29 18:11 | -0.30171 | -78.38208 | 11003 ft | 189 kts | 70° |
| 2026-04-29 18:11 | -0.29578 | -78.37101 | 10831 ft | 178 kts | 57° |
| 2026-04-29 18:11 | -0.28771 | -78.36191 | 10646 ft | 175 kts | 44° |
| 2026-04-29 18:11 | -0.27776 | -78.35502 | 10491 ft | 173 kts | 28° |
| 2026-04-29 18:12 | -0.26669 | -78.35050 | 10290 ft | 170 kts | 17° |
| 2026-04-29 18:12 | -0.25541 | -78.34898 | 10140 ft | 163 kts | 5° |
| 2026-04-29 18:12 | -0.24440 | -78.34920 | 9936 ft | 156 kts | 360° |
| 2026-04-29 18:12 | -0.23328 | -78.34970 | 9742 ft | 163 kts | 359° |
| 2026-04-29 18:13 | -0.22193 | -78.35026 | 9567 ft | 163 kts | 360° |
| 2026-04-29 18:13 | -0.21058 | -78.35085 | 9281 ft | 162 kts | 359° |
| 2026-04-29 18:13 | -0.19943 | -78.35131 | 9014 ft | 159 kts | 1° |
| 2026-04-29 18:13 | -0.18859 | -78.35168 | 8828 ft | 155 kts | 359° |
| 2026-04-29 18:14 | -0.17793 | -78.35213 | 8629 ft | 152 kts | 359° |
| 2026-04-29 18:14 | -0.16753 | -78.35270 | 8389 ft | 148 kts | 358° |
| 2026-04-29 18:14 | -0.15752 | -78.35297 | 8239 ft | 144 kts | 1° |
| 2026-04-29 18:14 | -0.14754 | -78.35344 | 8072 ft | 143 kts | 358° |
| 2026-04-29 18:15 | -0.13770 | -78.35389 | 7911 ft | 136 kts | 358° |
| 2026-04-29 18:15 | -0.12933 | -78.35424 | 7874 ft | 97 kts | 357° |
| 2026-04-29 18:15 | -0.12414 | -78.35445 | 7849 ft | 67 kts | 358° |
| 2026-04-29 18:15 | -0.12014 | -78.35463 | 7826 ft | 47 kts | 357° |
| 2026-04-29 18:16 | -0.11774 | -78.35495 | 7822 ft | 24 kts | 339° |
| 2026-04-29 18:16 | -0.11660 | -78.35555 | 7820 ft | 14 kts | 327° |
| 2026-04-29 18:16 | -0.11614 | -78.35617 | 7819 ft | 9 kts | 263° |
| 2026-04-29 18:16 | -0.11663 | -78.35644 | 7819 ft | 9 kts | 178° |
| 2026-04-29 18:17 | -0.11725 | -78.35642 | 7824 ft | 9 kts | 178° |
| 2026-04-29 18:17 | -0.11788 | -78.35639 | 7821 ft | 10 kts | 177° |
| 2026-04-29 18:17 | -0.11868 | -78.35634 | 7829 ft | 14 kts | 177° |
| 2026-04-29 18:17 | -0.11974 | -78.35630 | 7834 ft | 17 kts | 178° |
| 2026-04-29 18:18 | -0.12098 | -78.35626 | 7842 ft | 19 kts | 178° |
| 2026-04-29 18:18 | -0.12230 | -78.35621 | 7838 ft | 19 kts | 177° |
| 2026-04-29 18:18 | -0.12361 | -78.35614 | 7840 ft | 19 kts | 177° |
| 2026-04-29 18:18 | -0.12489 | -78.35608 | 7840 ft | 15 kts | 179° |
| 2026-04-29 18:19 | -0.12568 | -78.35606 | 7841 ft | 10 kts | 178° |
| 2026-04-29 18:19 | -0.12640 | -78.35604 | 7849 ft | 10 kts | 178° |
| 2026-04-29 18:19 | -0.12711 | -78.35602 | 7849 ft | 10 kts | 178° |
| 2026-04-29 18:19 | -0.12782 | -78.35599 | 7850 ft | 10 kts | 178° |
| 2026-04-29 18:20 | -0.12856 | -78.35596 | 7851 ft | 11 kts | 178° |
| 2026-04-29 18:20 | -0.12939 | -78.35592 | 7854 ft | 13 kts | 178° |
| 2026-04-29 18:20 | -0.13033 | -78.35588 | 7856 ft | 14 kts | 177° |
| 2026-04-29 18:20 | -0.13130 | -78.35584 | 7864 ft | 14 kts | 177° |
| 2026-04-29 18:21 | -0.13226 | -78.35580 | 7869 ft | 13 kts | 177° |
| 2026-04-29 18:21 | -0.13314 | -78.35576 | 7873 ft | 13 kts | 177° |
| 2026-04-29 18:21 | -0.13415 | -78.35571 | 7877 ft | 15 kts | 177° |
| 2026-04-29 18:21 | -0.13518 | -78.35567 | 7884 ft | 13 kts | 177° |
| 2026-04-29 18:22 | -0.13571 | -78.35592 | 7885 ft | 9 kts | 246° |